Ryuhomaru — JD2639 — position and weather

sailwx.info

Track history (hours):
 
Tides and Currents Weather Stations Pressure Air Temp Water Temp Dewpoint Dewpoint Depression Visibility Wind Speed Wind Dir Waves Ship Positions

Ryuhomaru

Last reported at 2014-Jul-26 03:33 UTC. Time now 2014-Jul-26 15:10 UTC.
Position N 34°33' E 135°27'.

Length 42 m; draft 3.5 m.

Type: Tug. MMSI: 431000586.

Date/timePositionNaut miles runAvg speedWind from/ knotsBaromVisibWave heightAir tempDewpointWater temp
2014-Jul-26 03:33N 34°33' E 135°27'6 6.0
2014-Jul-26 02:33N 34°39' E 135°24'1 1.1
2014-Jul-26 01:33N 34°38' E 135°23'4 4.2
2014-Jul-26 00:32N 34°34' E 135°24'1 1.2
2014-Jul-25 23:33N 34°33' E 135°25'1 1.0
2014-Jul-25 22:33N 34°33' E 135°27'0 0.0
2014-Jul-25 10:33N 34°33' E 135°27'1010.4
2014-Jul-25 09:33N 34°29' E 135°15'9 4.3
2014-Jul-25 07:31N 34°25' E 135°05'1414.5
2014-Jul-25 06:33N 34°33' E 135°19'4 3.9
2014-Jul-25 05:30N 34°34' E 135°24'2 2.2
2014-Jul-25 04:33N 34°33' E 135°27'0 0.0
2014-Jul-25 03:33N 34°33' E 135°27'0 0.0
2014-Jul-25 02:25N 34°33' E 135°27'0 0.0
2014-Jul-24 23:20N 34°33' E 135°27'0 0.0
2014-Jul-24 07:12N 34°33' E 135°27'0 0.0
2014-Jul-24 06:23N 34°33' E 135°27'0 0.0
2014-Jul-24 05:10N 34°33' E 135°27'0 0.0
2014-Jul-24 04:16N 34°33' E 135°27'0 0.0
2014-Jul-24 03:34N 34°33' E 135°27'0 0.0
2014-Jul-24 02:30N 34°33' E 135°27'0 0.0
2014-Jul-24 01:33N 34°33' E 135°27'2 1.7
2014-Jul-24 00:19N 34°34' E 135°24'1 1.1
2014-Jul-23 23:23N 34°33' E 135°23'6 7.6
2014-Jul-23 22:33N 34°32' E 135°16'2014.2
2014-Jul-23 21:10N 34°18' E 134°59'6 7.7
2014-Jul-23 20:24N 34°12' E 135°01'1011.3
2014-Jul-23 19:32N 34°22' E 135°01'1212.8
2014-Jul-23 18:33N 34°29' E 135°13'1211.9
2014-Jul-23 17:34N 34°33' E 135°26'0 0.0
2014-Jul-23 05:28N 34°33' E 135°27'0 0.0
2014-Jul-23 04:33N 34°33' E 135°27'0 0.0
2014-Jul-23 03:31N 34°33' E 135°27'0 0.0
2014-Jul-23 02:33N 34°33' E 135°27'3 2.5
2014-Jul-23 01:32N 34°32' E 135°24'1 1.3
2014-Jul-23 00:33N 34°33' E 135°23'3 2.8
2014-Jul-22 23:33N 34°33' E 135°26'0 0.0
2014-Jul-22 05:27N 34°33' E 135°27'0 0.0
2014-Jul-22 04:32N 34°33' E 135°27'0 0.0
2014-Jul-22 03:33N 34°33' E 135°27'0 0.0
2014-Jul-22 02:33N 34°33' E 135°27'0 0.0
2014-Jul-22 01:33N 34°33' E 135°27'0 0.0
2014-Jul-22 00:33N 34°33' E 135°27'1 1.1
2014-Jul-21 23:22N 34°34' E 135°25'1 1.7
2014-Jul-21 22:33N 34°33' E 135°27'0 0.0
2014-Jul-21 07:33N 34°33' E 135°27'1 0.6
2014-Jul-21 06:33N 34°33' E 135°26'0 0.1
2014-Jul-21 05:34N 34°33' E 135°26'4 3.7
2014-Jul-21 04:33N 34°33' E 135°21'3 3.3
2014-Jul-21 03:32N 34°33' E 135°25'1 1.0
2014-Jul-21 02:25N 34°33' E 135°27'0 0.0
2014-Jul-21 01:30N 34°33' E 135°27'0 0.0
2014-Jul-21 00:33N 34°33' E 135°27'0 0.0
2014-Jul-20 09:29N 34°33' E 135°27'6 6.3
2014-Jul-20 08:34N 34°39' E 135°24'3 2.6
2014-Jul-20 07:33N 34°36' E 135°24'0 0.1
2014-Jul-20 06:32N 34°36' E 135°24'0 0.0
2014-Jul-20 05:33N 34°36' E 135°24'0 0.0
2014-Jul-20 04:33N 34°36' E 135°24'3 2.8
2014-Jul-20 03:33N 34°33' E 135°24'2 1.9
2014-Jul-20 02:33N 34°33' E 135°27'0 0.0
2014-Jul-20 01:33N 34°33' E 135°27'0 0.0
2014-Jul-20 00:33N 34°33' E 135°27'0 0.0
2014-Jul-19 23:33N 34°33' E 135°27'0 0.0
2014-Jul-19 22:33N 34°33' E 135°27'0 0.0
2014-Jul-19 08:33N 34°33' E 135°27'4 3.6
2014-Jul-19 07:30N 34°31' E 135°23'1 0.7
2014-Jul-19 06:31N 34°31' E 135°24'0 0.1
2014-Jul-19 04:13N 34°31' E 135°24'0 0.6
2014-Jul-19 03:31N 34°31' E 135°23'3 3.5
2014-Jul-19 02:33N 34°33' E 135°26'1 0.5
2014-Jul-19 01:33N 34°33' E 135°27'2 1.4
2014-Jul-19 00:18N 34°34' E 135°24'1 1.8
2014-Jul-18 23:33N 34°33' E 135°26'1 0.6
2014-Jul-18 22:33N 34°33' E 135°27'0 0.0
2014-Jul-18 09:22N 34°33' E 135°27'2 1.9
2014-Jul-18 08:33N 34°33' E 135°25'1 1.1
2014-Jul-18 07:33N 34°33' E 135°26'0 0.5
2014-Jul-18 06:33N 34°33' E 135°27'0 0.0
2014-Jul-18 05:33N 34°33' E 135°27'0 0.0
2014-Jul-18 04:33N 34°33' E 135°27'0 0.0
2014-Jul-18 03:33N 34°33' E 135°27'0 0.0
2014-Jul-18 02:33N 34°33' E 135°27'0 0.0
2014-Jul-18 01:30N 34°33' E 135°27'0 0.0
2014-Jul-18 00:33N 34°33' E 135°27'0 0.0
2014-Jul-17 08:30N 34°33' E 135°27'1 0.5
2014-Jul-17 07:19N 34°33' E 135°26'0 0.0
2014-Jul-17 06:33N 34°33' E 135°26'1 0.9
2014-Jul-17 05:33N 34°33' E 135°25'3 2.8
2014-Jul-17 04:33N 34°33' E 135°21'3 1.6
2014-Jul-17 02:29N 34°31' E 135°24'3 3.7
2014-Jul-17 01:33N 34°33' E 135°27'  
Track history (hours):
 
Tides and Currents Weather Stations Pressure Air Temp Water Temp Dewpoint Dewpoint Depression Visibility Wind Speed Wind Dir Waves Ship Positions

Ryuhomaru

Last reported at 2014-Jul-26 03:33 UTC. Time now 2014-Jul-26 15:10 UTC.
Position N 34°33' E 135°27'.

Length 42 m; draft 3.5 m.

Type: Tug. MMSI: 431000586.

Date/timePositionNaut miles runAvg speedWind from/ knotsBaromVisibWave heightAir tempDewpointWater temp
2014-Jul-26 03:33N 34°33' E 135°27'6 6.0
2014-Jul-26 02:33N 34°39' E 135°24'1 1.1
2014-Jul-26 01:33N 34°38' E 135°23'4 4.2
2014-Jul-26 00:32N 34°34' E 135°24'1 1.2
2014-Jul-25 23:33N 34°33' E 135°25'1 1.0
2014-Jul-25 22:33N 34°33' E 135°27'0 0.0
2014-Jul-25 10:33N 34°33' E 135°27'1010.4
2014-Jul-25 09:33N 34°29' E 135°15'9 4.3
2014-Jul-25 07:31N 34°25' E 135°05'1414.5
2014-Jul-25 06:33N 34°33' E 135°19'4 3.9
2014-Jul-25 05:30N 34°34' E 135°24'2 2.2
2014-Jul-25 04:33N 34°33' E 135°27'0 0.0
2014-Jul-25 03:33N 34°33' E 135°27'0 0.0
2014-Jul-25 02:25N 34°33' E 135°27'0 0.0
2014-Jul-24 23:20N 34°33' E 135°27'0 0.0
2014-Jul-24 07:12N 34°33' E 135°27'0 0.0
2014-Jul-24 06:23N 34°33' E 135°27'0 0.0
2014-Jul-24 05:10N 34°33' E 135°27'0 0.0
2014-Jul-24 04:16N 34°33' E 135°27'0 0.0
2014-Jul-24 03:34N 34°33' E 135°27'0 0.0
2014-Jul-24 02:30N 34°33' E 135°27'0 0.0
2014-Jul-24 01:33N 34°33' E 135°27'2 1.7
2014-Jul-24 00:19N 34°34' E 135°24'1 1.1
2014-Jul-23 23:23N 34°33' E 135°23'6 7.6
2014-Jul-23 22:33N 34°32' E 135°16'2014.2
2014-Jul-23 21:10N 34°18' E 134°59'6 7.7
2014-Jul-23 20:24N 34°12' E 135°01'1011.3
2014-Jul-23 19:32N 34°22' E 135°01'1212.8
2014-Jul-23 18:33N 34°29' E 135°13'1211.9
2014-Jul-23 17:34N 34°33' E 135°26'0 0.0
2014-Jul-23 05:28N 34°33' E 135°27'0 0.0
2014-Jul-23 04:33N 34°33' E 135°27'0 0.0
2014-Jul-23 03:31N 34°33' E 135°27'0 0.0
2014-Jul-23 02:33N 34°33' E 135°27'3 2.5
2014-Jul-23 01:32N 34°32' E 135°24'1 1.3
2014-Jul-23 00:33N 34°33' E 135°23'3 2.8
2014-Jul-22 23:33N 34°33' E 135°26'0 0.0
2014-Jul-22 05:27N 34°33' E 135°27'0 0.0
2014-Jul-22 04:32N 34°33' E 135°27'0 0.0
2014-Jul-22 03:33N 34°33' E 135°27'0 0.0
2014-Jul-22 02:33N 34°33' E 135°27'0 0.0
2014-Jul-22 01:33N 34°33' E 135°27'0 0.0
2014-Jul-22 00:33N 34°33' E 135°27'1 1.1
2014-Jul-21 23:22N 34°34' E 135°25'1 1.7
2014-Jul-21 22:33N 34°33' E 135°27'0 0.0
2014-Jul-21 07:33N 34°33' E 135°27'1 0.6
2014-Jul-21 06:33N 34°33' E 135°26'0 0.1
2014-Jul-21 05:34N 34°33' E 135°26'4 3.7
2014-Jul-21 04:33N 34°33' E 135°21'3 3.3
2014-Jul-21 03:32N 34°33' E 135°25'1 1.0
2014-Jul-21 02:25N 34°33' E 135°27'0 0.0
2014-Jul-21 01:30N 34°33' E 135°27'0 0.0
2014-Jul-21 00:33N 34°33' E 135°27'0 0.0
2014-Jul-20 09:29N 34°33' E 135°27'6 6.3
2014-Jul-20 08:34N 34°39' E 135°24'3 2.6
2014-Jul-20 07:33N 34°36' E 135°24'0 0.1
2014-Jul-20 06:32N 34°36' E 135°24'0 0.0
2014-Jul-20 05:33N 34°36' E 135°24'0 0.0
2014-Jul-20 04:33N 34°36' E 135°24'3 2.8
2014-Jul-20 03:33N 34°33' E 135°24'2 1.9
2014-Jul-20 02:33N 34°33' E 135°27'0 0.0
2014-Jul-20 01:33N 34°33' E 135°27'0 0.0
2014-Jul-20 00:33N 34°33' E 135°27'0 0.0
2014-Jul-19 23:33N 34°33' E 135°27'0 0.0
2014-Jul-19 22:33N 34°33' E 135°27'0 0.0
2014-Jul-19 08:33N 34°33' E 135°27'4 3.6
2014-Jul-19 07:30N 34°31' E 135°23'1 0.7
2014-Jul-19 06:31N 34°31' E 135°24'0 0.1
2014-Jul-19 04:13N 34°31' E 135°24'0 0.6
2014-Jul-19 03:31N 34°31' E 135°23'3 3.5
2014-Jul-19 02:33N 34°33' E 135°26'1 0.5
2014-Jul-19 01:33N 34°33' E 135°27'2 1.4
2014-Jul-19 00:18N 34°34' E 135°24'1 1.8
2014-Jul-18 23:33N 34°33' E 135°26'1 0.6
2014-Jul-18 22:33N 34°33' E 135°27'0 0.0
2014-Jul-18 09:22N 34°33' E 135°27'2 1.9
2014-Jul-18 08:33N 34°33' E 135°25'1 1.1
2014-Jul-18 07:33N 34°33' E 135°26'0 0.5
2014-Jul-18 06:33N 34°33' E 135°27'0 0.0
2014-Jul-18 05:33N 34°33' E 135°27'0 0.0
2014-Jul-18 04:33N 34°33' E 135°27'0 0.0
2014-Jul-18 03:33N 34°33' E 135°27'0 0.0
2014-Jul-18 02:33N 34°33' E 135°27'0 0.0
2014-Jul-18 01:30N 34°33' E 135°27'0 0.0
2014-Jul-18 00:33N 34°33' E 135°27'0 0.0
2014-Jul-17 08:30N 34°33' E 135°27'1 0.5
2014-Jul-17 07:19N 34°33' E 135°26'0 0.0
2014-Jul-17 06:33N 34°33' E 135°26'1 0.9
2014-Jul-17 05:33N 34°33' E 135°25'3 2.8
2014-Jul-17 04:33N 34°33' E 135°21'3 1.6
2014-Jul-17 02:29N 34°31' E 135°24'3 3.7
2014-Jul-17 01:33N 34°33' E 135°27'  

Dump ship's entire track history